createdAt,value
2022-09-11T00:00:49.827Z,1.30
2022-09-11T00:03:17.655Z,1.50
2022-09-11T00:05:46.774Z,1.40
2022-09-11T00:08:16.847Z,1.57
2022-09-11T00:10:45.037Z,1.53
2022-09-11T00:13:14.265Z,1.60
2022-09-11T00:15:42.527Z,1.30
2022-09-11T00:18:11.860Z,1.30
2022-09-11T00:20:39.304Z,1.30
2022-09-11T00:23:08.133Z,1.73
2022-09-11T00:25:35.928Z,1.70
2022-09-11T00:28:03.635Z,1.37
2022-09-11T00:30:31.179Z,1.43
2022-09-11T00:32:58.592Z,1.33
2022-09-11T00:35:26.253Z,1.57
2022-09-11T00:37:53.680Z,1.20
2022-09-11T00:40:23.131Z,1.43
2022-09-11T00:42:52.803Z,1.30
2022-09-11T00:45:22.532Z,1.13
2022-09-11T00:47:51.513Z,1.20
2022-09-11T00:50:19.949Z,1.20
2022-09-11T00:52:53.080Z,1.17
2022-09-11T00:55:23.147Z,1.30
2022-09-11T00:57:53.010Z,1.03
2022-09-11T01:00:20.777Z,1.30
2022-09-11T01:02:50.083Z,1.10
2022-09-11T01:05:18.279Z,1.20
2022-09-11T01:07:47.041Z,1.00
2022-09-11T01:10:14.883Z,1.00
2022-09-11T01:12:47.241Z,0.90
2022-09-11T01:15:16.374Z,1.17
2022-09-11T01:17:49.007Z,0.90
2022-09-11T01:20:24.680Z,0.90
2022-09-11T01:23:07.296Z,0.90
2022-09-11T01:25:42.641Z,1.23
2022-09-11T01:28:13.591Z,1.27
2022-09-11T01:30:42.702Z,1.30
2022-09-11T01:33:13.866Z,1.20
2022-09-11T01:35:44.033Z,1.50
2022-09-11T01:38:15.859Z,1.20
2022-09-11T01:40:48.338Z,1.17
2022-09-11T01:43:22.146Z,1.73
2022-09-11T01:45:50.401Z,1.60
2022-09-11T01:48:20.444Z,1.43
2022-09-11T01:50:49.803Z,1.53
2022-09-11T01:53:18.709Z,1.47
2022-09-11T01:55:49.979Z,1.43
2022-09-11T01:58:21.658Z,1.70
2022-09-11T02:00:50.714Z,1.70
2022-09-11T02:03:20.423Z,1.40
2022-09-11T02:05:50.162Z,1.37
2022-09-11T02:08:19.625Z,1.30
2022-09-11T02:10:51.928Z,1.40
2022-09-11T02:13:27.587Z,1.40
2022-09-11T02:15:56.653Z,1.40
2022-09-11T02:18:26.850Z,1.77
2022-09-11T02:20:54.736Z,1.70
2022-09-11T02:23:22.685Z,1.40
2022-09-11T02:25:50.116Z,1.70
2022-09-11T02:28:17.965Z,1.43
2022-09-11T02:30:47.053Z,1.77
2022-09-11T02:33:30.984Z,1.40
2022-09-11T02:36:04.137Z,1.30
2022-09-11T02:38:36.919Z,1.60
2022-09-11T02:41:09.990Z,1.43
2022-09-11T02:43:42.786Z,1.50
2022-09-11T02:46:26.296Z,1.37
2022-09-11T02:48:57.852Z,1.30
2022-09-11T02:51:29.285Z,1.10
2022-09-11T02:54:01.725Z,1.50
2022-09-11T02:56:32.757Z,1.30
2022-09-11T02:59:01.838Z,1.50
2022-09-11T03:01:32.197Z,1.23
2022-09-11T03:03:59.620Z,1.33
2022-09-11T03:06:28.118Z,1.37
2022-09-11T03:08:55.608Z,1.23
2022-09-11T03:11:23.159Z,1.30
2022-09-11T03:13:50.577Z,1.30
2022-09-11T03:16:18.058Z,1.47
2022-09-11T03:18:46.977Z,1.50
2022-09-11T03:21:14.418Z,1.50
2022-09-11T03:23:41.949Z,1.50
2022-09-11T03:26:09.432Z,1.70
2022-09-11T03:28:36.855Z,1.73
2022-09-11T03:31:05.015Z,1.20
2022-09-11T03:33:32.490Z,1.77
2022-09-11T03:36:01.299Z,1.87
2022-09-11T03:38:28.749Z,1.97
2022-09-11T03:40:56.316Z,2.03
2022-09-11T03:43:23.759Z,2.10
2022-09-11T03:45:51.789Z,2.53
2022-09-11T03:48:19.694Z,2.47
2022-09-11T03:50:47.685Z,2.37
2022-09-11T03:53:16.569Z,2.53
2022-09-11T03:55:45.694Z,2.87
2022-09-11T03:58:14.082Z,3.03
2022-09-11T04:00:42.839Z,3.20
2022-09-11T04:03:10.318Z,3.53
2022-09-11T04:05:38.080Z,3.30
2022-09-11T04:08:06.294Z,4.00
2022-09-11T04:10:35.282Z,4.03
2022-09-11T04:13:02.700Z,4.20
2022-09-11T04:15:30.349Z,4.60
2022-09-11T04:18:00.081Z,4.87
2022-09-11T04:20:30.930Z,5.27
2022-09-11T04:22:58.428Z,5.73
2022-09-11T04:25:25.893Z,5.73
2022-09-11T04:27:54.673Z,5.97
2022-09-11T04:30:22.327Z,5.63
2022-09-11T04:32:50.320Z,6.30
2022-09-11T04:35:19.080Z,5.50
2022-09-11T04:37:46.493Z,6.30
2022-09-11T04:40:14.008Z,6.33
2022-09-11T04:42:41.443Z,6.80
2022-09-11T04:45:10.883Z,6.63
2022-09-11T04:47:38.356Z,6.03
2022-09-11T04:50:06.246Z,6.63
2022-09-11T04:52:34.194Z,6.93
2022-09-11T04:55:02.297Z,6.60
2022-09-11T04:57:31.149Z,6.67
2022-09-11T04:59:58.813Z,7.60
2022-09-11T05:02:27.635Z,7.20
2022-09-11T05:04:55.067Z,7.40
2022-09-11T05:07:22.516Z,7.27
2022-09-11T05:09:49.964Z,8.33
2022-09-11T05:12:17.662Z,8.57
2022-09-11T05:14:45.065Z,7.87
2022-09-11T05:17:13.343Z,8.03
2022-09-11T05:19:42.075Z,7.77
2022-09-11T05:22:09.516Z,8.53
2022-09-11T05:24:36.945Z,8.40
2022-09-11T05:27:04.686Z,8.57
2022-09-11T05:29:32.988Z,7.83
2022-09-11T05:32:00.551Z,8.93
2022-09-11T05:34:28.652Z,7.97
2022-09-11T05:36:57.817Z,8.90
2022-09-11T05:39:25.354Z,8.37
2022-09-11T05:41:53.041Z,7.73
2022-09-11T05:44:20.748Z,7.30
2022-09-11T05:46:48.684Z,7.23
2022-09-11T05:49:16.705Z,6.00
2022-09-11T05:51:44.139Z,7.03
2022-09-11T05:54:13.041Z,6.67
2022-09-11T05:56:41.485Z,6.77
2022-09-11T05:59:13.879Z,6.13
2022-09-11T06:01:43.000Z,5.40
2022-09-11T06:04:10.723Z,6.00
2022-09-11T06:06:38.135Z,5.50
2022-09-11T06:09:05.797Z,6.17
2022-09-11T06:11:34.662Z,5.97
2022-09-11T06:14:02.271Z,5.30
2022-09-11T06:16:31.795Z,5.83
2022-09-11T06:18:59.255Z,5.27
2022-09-11T06:21:29.163Z,5.50
2022-09-11T06:23:56.671Z,5.57
2022-09-11T06:26:24.900Z,4.60
2022-09-11T06:28:53.905Z,4.93
2022-09-11T06:31:22.252Z,4.13
2022-09-11T06:33:51.263Z,4.37
2022-09-11T06:36:19.599Z,3.87
2022-09-11T06:38:47.448Z,3.63
2022-09-11T06:41:15.591Z,2.87
2022-09-11T06:43:43.587Z,3.70
2022-09-11T06:46:13.481Z,3.57
2022-09-11T06:48:41.027Z,3.27
2022-09-11T06:51:11.334Z,2.73
2022-09-11T06:53:39.297Z,3.40
2022-09-11T06:56:07.271Z,2.83
2022-09-11T06:58:34.727Z,2.97
2022-09-11T07:01:03.546Z,3.03
2022-09-11T07:03:32.631Z,2.90
2022-09-11T07:06:00.330Z,3.20
2022-09-11T07:08:27.835Z,2.77
2022-09-11T07:10:55.538Z,3.27
2022-09-11T07:13:24.279Z,2.83
2022-09-11T07:16:00.356Z,2.70
2022-09-11T07:18:27.870Z,2.53
2022-09-11T07:20:56.694Z,2.10
2022-09-11T07:23:24.157Z,2.00
2022-09-11T07:25:51.620Z,1.83
2022-09-11T07:28:19.892Z,2.27
2022-09-11T07:30:50.068Z,2.03
2022-09-11T07:33:17.649Z,2.30
2022-09-11T07:35:45.401Z,2.80
2022-09-11T07:38:14.248Z,2.40
2022-09-11T07:40:42.084Z,2.33
2022-09-11T07:43:10.258Z,2.13
2022-09-11T07:45:37.847Z,2.13
2022-09-11T07:48:05.309Z,2.23
2022-09-11T07:50:33.232Z,2.23
2022-09-11T07:53:00.731Z,1.93
2022-09-11T07:55:29.933Z,1.80
2022-09-11T07:57:58.953Z,2.27
2022-09-11T08:00:26.923Z,2.10
2022-09-11T08:02:54.561Z,1.80
2022-09-11T08:05:22.047Z,1.33
2022-09-11T08:07:49.560Z,1.53
2022-09-11T08:10:27.269Z,1.50
2022-09-11T08:12:59.849Z,1.40
2022-09-11T08:15:27.904Z,1.50
2022-09-11T08:17:55.372Z,1.40
2022-09-11T08:20:22.928Z,1.30
2022-09-11T08:22:50.384Z,1.30
2022-09-11T08:25:18.179Z,1.10
2022-09-11T08:27:45.702Z,1.33
2022-09-11T08:30:14.702Z,1.20
2022-09-11T08:32:42.169Z,1.57
2022-09-11T08:35:09.940Z,1.47
2022-09-11T08:37:37.382Z,1.40
2022-09-11T08:40:05.455Z,1.50
2022-09-11T08:42:33.182Z,1.33
2022-09-11T08:45:01.455Z,1.20
2022-09-11T08:47:32.603Z,1.27
2022-09-11T08:50:02.598Z,1.30
2022-09-11T08:52:32.668Z,1.20
2022-09-11T08:55:00.467Z,1.10
2022-09-11T08:57:33.331Z,1.10
2022-09-11T09:00:05.680Z,0.80
2022-09-11T09:02:41.717Z,0.60
2022-09-11T09:05:15.971Z,0.80
2022-09-11T09:07:51.334Z,0.70
2022-09-11T09:10:24.677Z,0.80
2022-09-11T09:12:54.837Z,0.82
2022-09-11T09:15:29.383Z,1.00
2022-09-11T09:18:00.657Z,1.27
2022-09-11T09:20:30.908Z,1.30
2022-09-11T09:23:00.106Z,1.00
2022-09-11T09:25:27.861Z,1.33
2022-09-11T09:27:58.043Z,1.35
2022-09-11T09:30:27.459Z,1.40
2022-09-11T09:32:58.568Z,1.30
2022-09-11T09:35:30.528Z,1.40
2022-09-11T09:37:57.983Z,1.20
2022-09-11T09:40:26.759Z,1.30
2022-09-11T09:43:14.200Z,1.20
2022-09-11T09:45:45.515Z,1.33
2022-09-11T09:48:13.073Z,1.17
2022-09-11T09:50:43.908Z,1.27
2022-09-11T09:53:15.690Z,1.15
2022-09-11T09:55:43.435Z,1.30
2022-09-11T09:58:11.178Z,1.27
2022-09-11T10:00:39.378Z,1.40
2022-09-11T10:03:18.663Z,1.20
2022-09-11T10:05:48.431Z,1.13
2022-09-11T10:08:31.347Z,1.35
2022-09-11T10:10:59.540Z,1.60
2022-09-11T10:13:28.479Z,1.15
2022-09-11T10:15:57.322Z,1.30
2022-09-11T10:18:25.907Z,1.20
2022-09-11T10:21:13.510Z,1.45
2022-09-11T10:23:45.831Z,1.58
2022-09-11T10:26:16.342Z,1.30
2022-09-11T10:28:45.804Z,1.58
2022-09-11T10:31:15.173Z,1.70
2022-09-11T10:33:46.702Z,1.73
2022-09-11T10:36:22.601Z,1.92
2022-09-11T10:38:50.459Z,1.65
2022-09-11T10:41:19.535Z,2.25
2022-09-11T10:43:50.548Z,1.40
2022-09-11T10:46:23.999Z,1.92
2022-09-11T10:48:55.697Z,1.52
2022-09-11T10:51:25.282Z,1.23
2022-09-11T10:54:00.348Z,1.67
2022-09-11T10:56:28.341Z,1.70
2022-09-11T10:58:58.798Z,2.13
2022-09-11T11:01:26.438Z,1.75
2022-09-11T11:03:53.993Z,2.00
2022-09-11T11:06:27.327Z,1.77
2022-09-11T11:09:02.692Z,1.77
2022-09-11T11:11:40.236Z,2.03
2022-09-11T11:14:21.121Z,2.22
2022-09-11T11:16:53.723Z,1.60
2022-09-11T11:19:36.646Z,2.22
2022-09-11T11:22:09.224Z,1.65
2022-09-11T11:24:46.412Z,2.20
2022-09-11T11:27:31.509Z,1.65
2022-09-11T11:30:04.665Z,1.50
2022-09-11T11:32:49.638Z,1.42
2022-09-11T11:35:22.076Z,1.23
2022-09-11T11:37:54.586Z,1.60
2022-09-11T11:40:28.166Z,1.42
2022-09-11T11:42:58.199Z,1.30
2022-09-11T11:45:27.313Z,1.40
2022-09-11T11:47:55.546Z,1.40
2022-09-11T11:50:31.152Z,2.10
2022-09-11T11:53:03.947Z,1.80
2022-09-11T11:55:35.745Z,1.83
2022-09-11T11:58:06.926Z,1.75
2022-09-11T12:00:39.062Z,1.60
2022-09-11T12:03:11.034Z,1.42
2022-09-11T12:05:39.024Z,1.63
2022-09-11T12:08:11.813Z,1.30
2022-09-11T12:10:40.544Z,1.38
2022-09-11T12:13:10.005Z,1.17
2022-09-11T12:15:38.444Z,1.30
2022-09-11T12:18:25.052Z,1.40
2022-09-11T12:20:53.268Z,1.10
2022-09-11T12:23:35.341Z,1.30
2022-09-11T12:26:16.519Z,1.35
2022-09-11T12:28:44.069Z,1.20
2022-09-11T12:31:12.548Z,2.20
2022-09-11T12:33:51.175Z,1.40
2022-09-11T12:36:24.484Z,1.67
2022-09-11T12:38:55.029Z,1.70
2022-09-11T12:41:25.414Z,1.70
2022-09-11T12:43:53.664Z,1.50
2022-09-11T12:46:40.043Z,2.03
2022-09-11T12:49:22.046Z,1.23
2022-09-11T12:51:54.237Z,1.40
2022-09-11T12:54:25.353Z,1.30
2022-09-11T12:56:53.637Z,1.42
2022-09-11T12:59:24.637Z,1.30
2022-09-11T13:01:53.482Z,1.35
2022-09-11T13:04:23.111Z,0.98
2022-09-11T13:06:54.867Z,1.23
2022-09-11T13:09:26.221Z,1.10
2022-09-11T13:11:54.671Z,1.20
2022-09-11T13:14:37.654Z,1.08
2022-09-11T13:17:13.812Z,0.82
2022-09-11T13:19:41.260Z,0.90
2022-09-11T13:22:20.964Z,0.82
2022-09-11T13:24:49.806Z,0.90
2022-09-11T13:27:20.682Z,1.00
2022-09-11T13:29:49.240Z,1.00
2022-09-11T13:32:17.613Z,1.15
2022-09-11T13:34:45.988Z,0.90
2022-09-11T13:37:14.204Z,0.90
2022-09-11T13:39:43.101Z,1.00
2022-09-11T13:42:16.023Z,1.00
2022-09-11T13:44:45.025Z,1.70
2022-09-11T13:47:17.606Z,1.00
2022-09-11T13:49:46.035Z,0.98
2022-09-11T13:52:14.775Z,1.10
2022-09-11T13:54:44.115Z,1.48
2022-09-11T13:57:15.498Z,1.25
2022-09-11T13:59:48.221Z,1.10
2022-09-11T14:02:19.643Z,1.30
2022-09-11T14:04:47.497Z,1.10
2022-09-11T14:07:19.625Z,1.10
2022-09-11T14:09:47.869Z,1.30
2022-09-11T14:12:16.746Z,1.35
2022-09-11T14:14:46.964Z,1.70
2022-09-11T14:17:17.061Z,1.50
2022-09-11T14:19:45.774Z,1.30
2022-09-11T14:22:18.827Z,1.50
2022-09-11T14:24:52.283Z,1.50
2022-09-11T14:27:37.668Z,1.52
2022-09-11T14:30:19.943Z,1.15
2022-09-11T14:32:47.348Z,1.20
2022-09-11T14:35:14.868Z,1.45
2022-09-11T14:37:45.635Z,1.50
2022-09-11T14:40:15.576Z,1.90
2022-09-11T14:42:45.268Z,1.63
2022-09-11T14:45:18.798Z,1.30
2022-09-11T14:47:46.795Z,1.63
2022-09-11T14:50:14.366Z,1.30
2022-09-11T14:52:42.600Z,1.88
2022-09-11T14:55:14.300Z,1.55
2022-09-11T14:57:42.353Z,1.48
2022-09-11T15:00:14.222Z,1.10
2022-09-11T15:02:42.097Z,1.23
2022-09-11T15:05:13.988Z,0.90
2022-09-11T15:07:41.474Z,1.00
2022-09-11T15:10:10.513Z,1.10
2022-09-11T15:12:37.927Z,1.15
2022-09-11T15:15:05.718Z,1.15
2022-09-11T15:17:36.255Z,1.23
2022-09-11T15:20:04.702Z,1.20
2022-09-11T15:22:32.385Z,1.25
2022-09-11T15:25:00.331Z,1.85
2022-09-11T15:27:28.192Z,1.20
2022-09-11T15:29:55.751Z,1.05
2022-09-11T15:32:23.373Z,1.15
2022-09-11T15:34:53.387Z,1.30
2022-09-11T15:37:23.761Z,1.00
2022-09-11T15:39:51.405Z,1.00
2022-09-11T15:42:19.380Z,1.42
2022-09-11T15:44:48.077Z,1.42
2022-09-11T15:47:15.487Z,2.28
2022-09-11T15:49:44.353Z,1.88
2022-09-11T15:52:13.121Z,1.98
2022-09-11T15:54:40.611Z,1.25
2022-09-11T15:57:08.500Z,1.05
2022-09-11T15:59:35.916Z,1.20
2022-09-11T16:02:03.436Z,1.45
2022-09-11T16:04:32.218Z,1.55
2022-09-11T16:07:00.007Z,1.77
2022-09-11T16:09:29.857Z,1.52
2022-09-11T16:11:57.296Z,2.28
2022-09-11T16:14:25.942Z,1.52
2022-09-11T16:16:54.429Z,1.45
2022-09-11T16:19:22.623Z,1.70
2022-09-11T16:21:50.236Z,1.42
2022-09-11T16:24:18.427Z,1.80
2022-09-11T16:26:47.381Z,2.38
2022-09-11T16:29:17.933Z,1.70
2022-09-11T16:31:45.459Z,1.58
2022-09-11T16:34:13.068Z,1.40
2022-09-11T16:36:42.490Z,2.17
2022-09-11T16:39:11.671Z,2.55
2022-09-11T16:41:39.472Z,1.52
2022-09-11T16:44:09.422Z,1.42
2022-09-11T16:46:37.303Z,1.27
2022-09-11T16:49:05.946Z,1.33
2022-09-11T16:51:34.191Z,1.27
2022-09-11T16:54:02.027Z,1.30
2022-09-11T16:56:29.822Z,1.40
2022-09-11T16:58:57.541Z,1.40
2022-09-11T17:01:27.551Z,1.45
2022-09-11T17:03:56.531Z,9.02
2022-09-11T17:06:24.945Z,5.47
2022-09-11T17:08:52.904Z,1.90
2022-09-11T17:11:22.024Z,1.70
2022-09-11T17:13:50.493Z,1.50
2022-09-11T17:16:19.442Z,1.60
2022-09-11T17:18:49.133Z,1.70
2022-09-11T17:21:17.439Z,1.63
2022-09-11T17:23:45.362Z,1.80
2022-09-11T17:26:15.182Z,1.80
2022-09-11T17:28:43.753Z,1.67
2022-09-11T17:31:13.393Z,1.83
2022-09-11T17:33:42.106Z,3.40
2022-09-11T17:36:12.142Z,2.03
2022-09-11T17:38:40.891Z,1.92
2022-09-11T17:41:09.402Z,1.63
2022-09-11T17:43:37.865Z,1.63
2022-09-11T17:46:07.050Z,1.98
2022-09-11T17:48:35.138Z,2.13
2022-09-11T17:51:03.371Z,2.95
2022-09-11T17:53:38.597Z,2.42
2022-09-11T17:56:07.694Z,2.60
2022-09-11T17:58:36.231Z,1.92
2022-09-11T18:01:04.215Z,2.33
2022-09-11T18:03:32.303Z,2.15
2022-09-11T18:06:02.006Z,1.90
2022-09-11T18:08:31.415Z,2.10
2022-09-11T18:11:03.422Z,2.50
2022-09-11T18:13:34.699Z,3.20
2022-09-11T18:16:05.700Z,2.55
2022-09-11T18:18:35.694Z,2.30
2022-09-11T18:21:06.596Z,2.97
2022-09-11T18:23:36.818Z,2.80
2022-09-11T18:26:06.425Z,2.88
2022-09-11T18:28:34.125Z,3.45
2022-09-11T18:31:02.558Z,4.27
2022-09-11T18:33:30.089Z,3.23
2022-09-11T18:35:59.946Z,2.38
2022-09-11T18:38:32.931Z,3.42
2022-09-11T18:41:00.665Z,2.90
2022-09-11T18:43:29.585Z,3.53
2022-09-11T18:45:57.030Z,3.35
2022-09-11T18:48:24.487Z,3.47
2022-09-11T18:50:52.256Z,3.60
2022-09-11T18:53:20.070Z,3.67
2022-09-11T18:55:47.507Z,4.35
2022-09-11T18:58:14.984Z,2.97
2022-09-11T19:00:43.881Z,3.67
2022-09-11T19:03:12.113Z,3.27
2022-09-11T19:05:39.671Z,3.90
2022-09-11T19:08:07.227Z,3.67
2022-09-11T19:10:36.140Z,3.20
2022-09-11T19:13:03.612Z,3.03
2022-09-11T19:15:31.137Z,4.10
2022-09-11T19:18:01.715Z,3.77
2022-09-11T19:20:30.012Z,3.97
2022-09-11T19:23:02.810Z,3.90
2022-09-11T19:25:31.309Z,3.90
2022-09-11T19:28:00.296Z,3.37
2022-09-11T19:30:28.171Z,3.67
2022-09-11T19:32:55.764Z,4.30
2022-09-11T19:35:24.662Z,4.23
2022-09-11T19:37:52.188Z,4.23
2022-09-11T19:40:20.774Z,4.60
2022-09-11T19:42:48.277Z,4.10
2022-09-11T19:45:15.859Z,4.13
2022-09-11T19:47:43.412Z,5.00
2022-09-11T19:50:12.989Z,5.40
2022-09-11T19:52:41.945Z,5.50
2022-09-11T19:55:10.120Z,4.90
2022-09-11T19:57:38.202Z,4.80
2022-09-11T20:00:06.178Z,4.90
2022-09-11T20:02:33.623Z,4.97
2022-09-11T20:05:01.382Z,5.73
2022-09-11T20:07:31.554Z,4.93
2022-09-11T20:10:01.355Z,5.97
2022-09-11T20:12:31.216Z,5.87
2022-09-11T20:15:00.516Z,5.47
2022-09-11T20:17:29.446Z,6.40
2022-09-11T20:19:56.910Z,5.37
2022-09-11T20:22:24.784Z,6.47
2022-09-11T20:24:52.239Z,7.00
2022-09-11T20:27:21.210Z,7.27
2022-09-11T20:29:48.812Z,6.50
2022-09-11T20:32:18.094Z,6.60
2022-09-11T20:34:45.626Z,7.20
2022-09-11T20:37:13.064Z,6.90
2022-09-11T20:39:40.707Z,6.37
2022-09-11T20:42:08.494Z,6.17
2022-09-11T20:44:37.586Z,5.80
2022-09-11T20:47:05.289Z,5.33
2022-09-11T20:49:34.983Z,6.63
2022-09-11T20:52:03.565Z,5.87
2022-09-11T20:54:31.059Z,5.00
2022-09-11T20:57:00.476Z,5.73
2022-09-11T20:59:28.221Z,5.87
2022-09-11T21:01:57.159Z,5.70
2022-09-11T21:04:25.250Z,6.33
2022-09-11T21:06:53.389Z,6.10
2022-09-11T21:09:22.929Z,5.90
2022-09-11T21:11:50.483Z,5.90
2022-09-11T21:14:18.084Z,6.20
2022-09-11T21:16:45.820Z,5.77
2022-09-11T21:19:15.027Z,5.80
2022-09-11T21:21:43.677Z,5.10
2022-09-11T21:24:12.680Z,5.83
2022-09-11T21:26:40.444Z,5.57
2022-09-11T21:29:09.239Z,5.90
2022-09-11T21:31:37.203Z,5.60
2022-09-11T21:34:04.691Z,6.40
2022-09-11T21:36:33.712Z,6.40
2022-09-11T21:39:01.173Z,7.43
2022-09-11T21:41:28.708Z,7.13
2022-09-11T21:43:56.194Z,6.77
2022-09-11T21:46:23.749Z,6.77
2022-09-11T21:48:51.247Z,6.57
2022-09-11T21:51:20.115Z,7.23
2022-09-11T21:53:49.645Z,7.37
2022-09-11T21:56:18.349Z,6.13
2022-09-11T21:58:45.808Z,6.47
2022-09-11T22:01:13.632Z,6.53
2022-09-11T22:03:41.249Z,6.73
2022-09-11T22:06:10.694Z,7.03
2022-09-11T22:08:38.479Z,6.50
2022-09-11T22:11:07.795Z,6.97
2022-09-11T22:13:36.375Z,7.10
2022-09-11T22:16:05.235Z,7.17
2022-09-11T22:18:32.875Z,6.70
2022-09-11T22:21:01.344Z,6.90
2022-09-11T22:23:30.014Z,7.73
2022-09-11T22:26:02.669Z,7.43
2022-09-11T22:28:31.565Z,5.97
2022-09-11T22:30:58.983Z,6.73
2022-09-11T22:33:26.483Z,7.20
2022-09-11T22:35:53.903Z,6.60
2022-09-11T22:38:21.326Z,5.90
2022-09-11T22:40:52.883Z,6.13
2022-09-11T22:43:20.431Z,6.23
2022-09-11T22:45:52.770Z,6.13
2022-09-11T22:48:20.239Z,5.50
2022-09-11T22:50:47.703Z,5.20
2022-09-11T22:53:15.234Z,5.77
2022-09-11T22:55:43.836Z,5.67
2022-09-11T22:58:11.290Z,5.50
2022-09-11T23:00:39.078Z,5.50
2022-09-11T23:03:07.910Z,5.80
2022-09-11T23:05:52.780Z,5.00
2022-09-11T23:08:20.320Z,5.07
2022-09-11T23:10:47.971Z,5.37
2022-09-11T23:13:15.408Z,4.83
2022-09-11T23:15:42.931Z,5.73
2022-09-11T23:18:12.449Z,4.63
2022-09-11T23:20:40.036Z,4.87
2022-09-11T23:23:07.480Z,4.90
2022-09-11T23:25:36.161Z,5.23
2022-09-11T23:28:03.803Z,5.63
2022-09-11T23:30:31.243Z,5.17
2022-09-11T23:32:58.696Z,4.83
2022-09-11T23:35:27.463Z,4.73
2022-09-11T23:37:54.886Z,4.77
2022-09-11T23:40:22.387Z,5.57
2022-09-11T23:42:49.900Z,4.57
2022-09-11T23:45:19.052Z,4.87
2022-09-11T23:47:46.475Z,5.20
2022-09-11T23:50:13.871Z,4.30
2022-09-11T23:52:42.884Z,5.23
2022-09-11T23:55:10.799Z,5.57
2022-09-11T23:57:38.218Z,5.07
